Time;durP1;ratioP1;P1;durP2;ratioP2;P2;SDS_P1;SDS_P2;PMS_P1;PMS_P2;Temp;Humidity;BMP_temperature;BMP_pressure;BME280_temperature;BME280_humidity;BME280_pressure;Samples;Min_cycle;Max_cycle;Signal;HPM_P1;HPM_P2
2022/07/19 00:01:36;;;;;;;17.50;4.30;;;;;;;17.70;61.72;100848.77;105624;1273;25623;-54
2022/07/19 00:04:07;;;;;;;12.30;3.60;;;;;;;17.66;62.01;100849.23;105830;1273;24314;-56
2022/07/19 00:06:39;;;;;;;18.00;3.70;;;;;;;17.63;62.00;100855.59;105821;1273;24427;-52
2022/07/19 00:09:10;;;;;;;10.10;2.50;;;;;;;17.59;62.20;100849.70;105753;1273;22537;-51
2022/07/19 00:11:41;;;;;;;14.40;4.00;;;;;;;17.58;62.24;100854.16;105740;1273;22730;-50
2022/07/19 00:14:12;;;;;;;14.30;3.50;;;;;;;17.57;62.38;100855.02;105980;1273;22534;-52
2022/07/19 00:16:44;;;;;;;10.60;2.70;;;;;;;17.54;62.55;100860.88;105769;1273;25528;-54
2022/07/19 00:19:15;;;;;;;11.90;2.90;;;;;;;17.50;62.73;100859.44;105753;1273;24259;-53
2022/07/19 00:21:47;;;;;;;13.90;3.60;;;;;;;17.45;62.81;100856.95;105913;1273;22559;-50
2022/07/19 00:24:18;;;;;;;14.30;3.20;;;;;;;17.42;63.20;100856.17;105920;1273;22537;-52
2022/07/19 00:26:50;;;;;;;17.00;3.30;;;;;;;17.39;63.85;100857.30;105749;1273;22531;-51
2022/07/19 00:29:21;;;;;;;13.20;2.50;;;;;;;17.34;63.88;100855.09;105803;1273;25302;-52
2022/07/19 00:31:53;;;;;;;20.50;3.20;;;;;;;17.30;64.08;100855.65;105662;1273;22531;-58
2022/07/19 00:34:24;;;;;;;12.50;2.90;;;;;;;17.25;64.10;100852.50;105906;1273;23819;-54
2022/07/19 00:36:55;;;;;;;15.10;3.00;;;;;;;17.19;64.28;100855.83;105689;1273;22571;-50
2022/07/19 00:39:27;;;;;;;17.10;3.30;;;;;;;17.14;64.17;100857.82;105689;1274;22528;-51
2022/07/19 00:41:59;;;;;;;12.10;3.20;;;;;;;17.10;64.42;100857.50;105689;1273;24254;-51
2022/07/19 00:44:31;;;;;;;12.10;3.10;;;;;;;17.05;64.39;100859.70;105826;1273;25242;-52
2022/07/19 00:47:03;;;;;;;11.50;2.70;;;;;;;16.98;64.60;100857.63;105666;1273;22708;-55
2022/07/19 00:49:35;;;;;;;14.80;3.60;;;;;;;16.91;64.79;100863.10;106377;1262;22502;-66
2022/07/19 00:52:08;;;;;;;12.90;2.30;;;;;;;16.82;64.84;100862.04;105907;1271;22547;-66
2022/07/19 00:54:42;;;;;;;9.40;2.40;;;;;;;16.77;64.84;100861.40;105832;1273;24298;-65
2022/07/19 00:57:14;;;;;;;10.40;2.60;;;;;;;16.74;64.96;100861.34;105741;1273;22573;-64
2022/07/19 00:59:50;;;;;;;12.20;2.90;;;;;;;16.71;64.85;100859.85;105910;1273;22531;-65
2022/07/19 01:02:21;;;;;;;19.30;3.10;;;;;;;16.65;65.06;100854.39;105805;1273;25356;-65
2022/07/19 01:04:53;;;;;;;14.00;3.00;;;;;;;16.59;65.19;100855.39;106016;1273;23923;-65
2022/07/19 01:07:24;;;;;;;14.10;2.80;;;;;;;16.54;65.22;100850.59;105980;1273;24247;-64
2022/07/19 01:09:56;;;;;;;14.20;2.80;;;;;;;16.49;65.43;100845.95;106114;1273;24435;-65
2022/07/19 01:12:28;;;;;;;15.00;3.10;;;;;;;16.45;65.44;100847.80;105996;1273;22578;-65
2022/07/19 01:15:00;;;;;;;11.10;2.70;;;;;;;16.41;65.56;100857.67;106060;1273;22560;-65
2022/07/19 01:17:31;;;;;;;12.20;3.40;;;;;;;16.39;65.61;100857.27;105874;1271;22539;-65
2022/07/19 01:20:02;;;;;;;11.50;3.30;;;;;;;16.39;65.42;100858.48;105825;1273;22948;-65
2022/07/19 01:22:34;;;;;;;13.70;3.80;;;;;;;16.37;65.71;100862.11;105772;1273;25545;-65
2022/07/19 01:25:07;;;;;;;12.20;3.10;;;;;;;16.33;65.74;100867.00;106065;1273;22546;-65
2022/07/19 01:27:43;;;;;;;15.10;3.30;;;;;;;16.24;65.97;100863.17;105882;1273;24275;-65
2022/07/19 01:30:17;;;;;;;14.50;3.40;;;;;;;16.14;66.21;100860.40;105915;1273;23633;-64
2022/07/19 01:32:53;;;;;;;12.60;3.10;;;;;;;16.08;66.44;100859.28;105939;1271;25329;-65
2022/07/19 01:35:26;;;;;;;11.60;3.10;;;;;;;16.04;66.57;100857.94;105713;1273;22537;-64
2022/07/19 01:37:58;;;;;;;14.50;3.30;;;;;;;16.00;66.71;100853.29;105851;1273;22555;-64
2022/07/19 01:40:29;;;;;;;12.30;2.60;;;;;;;15.96;66.56;100853.98;106012;1271;24242;-65
2022/07/19 01:43:02;;;;;;;10.70;2.80;;;;;;;15.90;66.86;100856.39;106026;1273;24342;-64
2022/07/19 01:45:33;;;;;;;10.20;2.30;;;;;;;15.83;66.96;100860.13;105870;1272;24240;-65
2022/07/19 01:48:06;;;;;;;11.40;3.10;;;;;;;15.79;67.04;100858.86;105624;1273;22558;-65
2022/07/19 01:50:37;;;;;;;7.80;2.30;;;;;;;15.75;67.14;100855.56;105956;1272;25631;-64
2022/07/19 01:53:09;;;;;;;11.60;2.90;;;;;;;15.72;67.17;100854.41;105681;1271;25604;-65
2022/07/19 01:55:41;;;;;;;12.30;2.30;;;;;;;15.69;67.22;100850.75;105847;1272;24234;-65
2022/07/19 01:58:16;;;;;;;11.80;2.50;;;;;;;15.67;67.31;100852.95;105925;1272;25650;-64
2022/07/19 02:00:47;;;;;;;15.00;3.40;;;;;;;15.59;67.68;100855.27;105954;1273;26383;-64
2022/07/19 02:03:19;;;;;;;11.70;3.20;;;;;;;15.52;67.79;100854.60;105756;1273;22552;-64
2022/07/19 02:05:50;;;;;;;12.50;2.80;;;;;;;15.48;67.90;100856.83;105869;1273;22581;-65
2022/07/19 02:08:21;;;;;;;13.30;3.80;;;;;;;15.42;67.92;100855.58;105832;1273;22539;-64
2022/07/19 02:10:53;;;;;;;18.00;3.90;;;;;;;15.36;68.19;100854.84;105862;1271;24291;-64
2022/07/19 02:13:24;;;;;;;13.20;3.30;;;;;;;15.31;68.42;100851.73;106009;1271;22551;-65
2022/07/19 02:15:56;;;;;;;15.00;3.50;;;;;;;15.26;68.26;100846.00;105841;1273;25361;-64
2022/07/19 02:18:27;;;;;;;18.00;3.90;;;;;;;15.21;68.48;100842.98;105870;1273;25344;-64
2022/07/19 02:21:00;;;;;;;11.90;3.60;;;;;;;15.18;68.70;100847.10;105985;1273;25385;-64
2022/07/19 02:23:33;;;;;;;15.20;3.60;;;;;;;15.16;68.86;100847.33;105971;1273;22562;-64
2022/07/19 02:26:04;;;;;;;14.90;4.80;;;;;;;15.15;68.87;100846.20;105868;1273;22557;-65
2022/07/19 02:28:36;;;;;;;15.90;4.70;;;;;;;15.14;68.96;100846.75;105840;1273;24384;-65
2022/07/19 02:31:08;;;;;;;12.00;3.80;;;;;;;15.13;69.27;100844.30;105864;1273;22553;-64
2022/07/19 02:33:40;;;;;;;14.40;3.60;;;;;;;15.14;69.54;100846.29;105741;1272;22877;-64
2022/07/19 02:36:11;;;;;;;10.50;3.40;;;;;;;15.13;69.74;100846.69;105719;1273;22532;-64
2022/07/19 02:38:43;;;;;;;12.40;3.60;;;;;;;15.14;69.80;100849.72;105695;1271;24344;-65
2022/07/19 02:41:14;;;;;;;14.10;3.80;;;;;;;15.15;69.99;100851.41;105817;1273;22547;-64
2022/07/19 02:43:47;;;;;;;15.60;4.60;;;;;;;15.17;70.13;100854.10;105823;1271;22560;-64
2022/07/19 02:46:21;;;;;;;14.80;5.10;;;;;;;15.19;70.66;100857.55;105701;1273;22551;-63
2022/07/19 02:48:52;;;;;;;16.20;4.00;;;;;;;15.20;70.63;100862.04;106049;1274;25263;-63
2022/07/19 02:51:24;;;;;;;17.00;3.80;;;;;;;15.21;70.82;100862.21;105902;1274;24212;-65
2022/07/19 02:53:56;;;;;;;12.60;3.40;;;;;;;15.22;71.22;100860.16;105781;1273;22549;-64
2022/07/19 02:56:28;;;;;;;19.00;3.90;;;;;;;15.22;71.01;100860.29;106284;1271;25318;-64
2022/07/19 02:58:59;;;;;;;15.80;3.60;;;;;;;15.23;71.15;100859.36;105733;1273;22551;-64
2022/07/19 03:01:30;;;;;;;14.80;2.80;;;;;;;15.24;71.24;100860.60;105784;1273;24310;-63
2022/07/19 03:04:01;;;;;;;16.00;3.40;;;;;;;15.24;71.29;100862.80;105831;1273;24636;-64
2022/07/19 03:06:33;;;;;;;14.00;2.60;;;;;;;15.25;71.21;100858.97;105704;1273;22550;-64
2022/07/19 03:09:04;;;;;;;12.00;2.40;;;;;;;15.25;71.13;100854.23;105823;1273;22573;-64
2022/07/19 03:11:35;;;;;;;15.10;3.00;;;;;;;15.26;71.09;100856.19;105794;1271;24376;-64
2022/07/19 03:14:07;;;;;;;14.70;3.40;;;;;;;15.28;71.39;100856.55;105921;1274;24325;-65
2022/07/19 03:16:38;;;;;;;19.30;2.90;;;;;;;15.29;71.49;100856.41;105961;1271;25217;-64
2022/07/19 03:19:10;;;;;;;15.90;3.70;;;;;;;15.29;71.65;100860.60;105837;1274;22558;-64
2022/07/19 03:21:41;;;;;;;13.30;2.80;;;;;;;15.30;71.68;100861.89;105914;1274;24276;-64
2022/07/19 03:24:13;;;;;;;15.90;3.30;;;;;;;15.30;71.79;100861.27;105982;1273;22623;-64
2022/07/19 03:26:44;;;;;;;20.20;3.50;;;;;;;15.31;71.80;100864.20;105787;1274;24412;-64
2022/07/19 03:29:16;;;;;;;18.30;2.40;;;;;;;15.32;71.73;100860.84;105795;1274;25342;-64
2022/07/19 03:31:47;;;;;;;15.20;3.00;;;;;;;15.36;71.80;100857.76;105782;1271;25263;-63
2022/07/19 03:34:19;;;;;;;16.10;2.90;;;;;;;15.37;71.83;100856.75;105755;1274;22629;-64
2022/07/19 03:36:50;;;;;;;12.70;3.00;;;;;;;15.38;71.73;100864.48;105743;1274;24268;-64
2022/07/19 03:39:22;;;;;;;16.90;3.50;;;;;;;15.40;71.84;100860.05;105968;1274;23449;-64
2022/07/19 03:41:54;;;;;;;13.20;2.40;;;;;;;15.42;71.84;100863.55;105850;1274;22544;-64
2022/07/19 03:44:26;;;;;;;15.10;2.80;;;;;;;15.44;72.20;100864.14;105792;1274;22575;-64
2022/07/19 03:46:57;;;;;;;11.00;2.40;;;;;;;15.45;71.98;100863.70;105696;1274;23202;-64
2022/07/19 03:49:28;;;;;;;15.00;2.50;;;;;;;15.48;72.02;100862.35;105896;1274;22672;-64
2022/07/19 03:51:59;;;;;;;19.90;3.10;;;;;;;15.49;71.86;100860.48;105808;1274;25304;-63
2022/07/19 03:54:31;;;;;;;9.00;2.40;;;;;;;15.52;72.04;100861.01;106688;1271;22625;-64
2022/07/19 03:57:02;;;;;;;14.10;2.90;;;;;;;15.55;72.11;100864.40;105755;1275;22632;-65
2022/07/19 03:59:34;;;;;;;14.40;2.70;;;;;;;15.57;71.95;100863.55;105829;1274;22522;-63
2022/07/19 04:02:06;;;;;;;15.80;2.70;;;;;;;15.60;72.26;100860.61;105808;1274;24405;-64
2022/07/19 04:04:37;;;;;;;15.40;2.20;;;;;;;15.62;72.04;100864.15;105848;1274;22538;-64
2022/07/19 04:07:09;;;;;;;15.10;2.90;;;;;;;15.65;72.11;100866.80;106019;1274;22536;-64
2022/07/19 04:09:41;;;;;;;13.20;2.40;;;;;;;15.68;72.14;100864.92;106055;1274;22554;-64
2022/07/19 04:12:12;;;;;;;20.40;3.00;;;;;;;15.70;72.15;100861.05;105949;1273;25334;-64
2022/07/19 04:14:44;;;;;;;16.40;3.20;;;;;;;15.73;72.06;100864.20;105937;1271;25402;-64
2022/07/19 04:17:15;;;;;;;18.70;3.00;;;;;;;15.74;72.02;100863.85;105917;1272;22621;-64
2022/07/19 04:19:47;;;;;;;12.70;2.50;;;;;;;15.76;71.83;100870.67;105919;1273;25597;-65
2022/07/19 04:22:19;;;;;;;18.50;2.70;;;;;;;15.77;71.85;100863.32;105938;1274;22690;-64
2022/07/19 04:24:50;;;;;;;18.90;4.40;;;;;;;15.80;71.87;100864.52;105815;1274;22635;-64
2022/07/19 04:27:22;;;;;;;15.40;2.50;;;;;;;15.83;71.93;100868.59;105772;1274;24496;-64
2022/07/19 04:29:54;;;;;;;13.30;1.80;;;;;;;15.87;71.78;100867.33;105713;1272;22552;-64
2022/07/19 04:32:26;;;;;;;13.40;2.20;;;;;;;15.90;71.87;100868.02;105749;1271;22652;-65
2022/07/19 04:34:57;;;;;;;11.80;2.40;;;;;;;15.95;71.60;100872.14;105819;1272;22538;-64
2022/07/19 04:37:29;;;;;;;13.40;2.50;;;;;;;15.98;71.77;100873.14;105741;1274;22537;-64
2022/07/19 04:40:01;;;;;;;18.30;3.00;;;;;;;16.03;71.59;100876.55;105743;1274;22538;-63
2022/07/19 04:42:34;;;;;;;12.80;2.70;;;;;;;16.08;71.56;100877.11;105952;1274;22576;-64
2022/07/19 04:45:06;;;;;;;21.00;2.80;;;;;;;16.12;71.41;100878.77;105724;1274;22720;-65
2022/07/19 04:47:37;;;;;;;16.20;2.60;;;;;;;16.17;71.38;100878.65;105734;1274;22531;-64
2022/07/19 04:50:11;;;;;;;14.20;2.20;;;;;;;16.23;71.29;100881.20;106003;1274;23077;-64
2022/07/19 04:52:43;;;;;;;15.90;2.00;;;;;;;16.29;70.95;100886.66;105779;1271;22744;-64
2022/07/19 04:55:15;;;;;;;16.40;3.10;;;;;;;16.35;71.08;100887.26;105740;1274;22618;-64
2022/07/19 04:57:46;;;;;;;17.70;2.50;;;;;;;16.40;71.06;100888.41;105852;1274;22631;-64
2022/07/19 05:00:18;;;;;;;14.40;2.40;;;;;;;16.45;71.03;100888.45;105792;1271;22603;-63
2022/07/19 05:02:49;;;;;;;10.70;2.00;;;;;;;16.53;71.03;100888.66;105798;1274;24394;-63
2022/07/19 05:05:21;;;;;;;11.50;2.00;;;;;;;16.61;70.89;100887.58;106983;1274;22825;-65
2022/07/19 05:07:53;;;;;;;10.30;1.70;;;;;;;16.71;70.80;100886.60;106390;1274;24291;-64
2022/07/19 05:10:25;;;;;;;7.60;1.30;;;;;;;16.81;70.53;100885.11;105966;1273;22587;-64
2022/07/19 05:12:57;;;;;;;8.70;1.90;;;;;;;16.90;70.24;100884.46;105931;1274;25359;-64
2022/07/19 05:15:29;;;;;;;6.10;1.70;;;;;;;17.00;70.41;100875.48;105794;1274;22625;-63
2022/07/19 05:18:01;;;;;;;9.90;1.50;;;;;;;17.11;70.21;100875.61;105924;1273;24389;-64
2022/07/19 05:20:35;;;;;;;9.80;1.30;;;;;;;17.23;69.80;100870.98;106344;1274;24251;-64
2022/07/19 05:23:07;;;;;;;7.00;1.40;;;;;;;17.33;69.54;100869.91;105693;1271;22704;-63
2022/07/19 05:25:39;;;;;;;6.60;1.20;;;;;;;17.44;69.05;100862.02;105873;1273;26568;-64
2022/07/19 05:28:11;;;;;;;10.60;1.70;;;;;;;17.56;68.88;100867.10;105953;1274;24265;-64
2022/07/19 05:30:43;;;;;;;8.80;1.20;;;;;;;17.67;68.63;100863.75;105881;1274;25597;-65
2022/07/19 05:33:16;;;;;;;10.80;1.30;;;;;;;17.79;68.73;100865.91;105911;1273;22904;-65
2022/07/19 05:35:47;;;;;;;12.60;1.40;;;;;;;17.94;69.07;100864.66;105967;1274;25316;-66
2022/07/19 05:38:19;;;;;;;8.90;1.40;;;;;;;18.06;68.59;100867.84;105920;1274;24447;-64
2022/07/19 05:40:51;;;;;;;9.40;1.30;;;;;;;18.24;68.94;100868.21;105868;1274;22533;-65
2022/07/19 05:43:23;;;;;;;8.90;1.30;;;;;;;18.48;68.47;100867.75;105773;1272;22547;-64
2022/07/19 05:45:54;;;;;;;7.10;1.20;;;;;;;18.69;67.98;100863.21;106437;1274;25394;-65
2022/07/19 05:48:26;;;;;;;12.20;1.50;;;;;;;18.83;67.40;100859.91;105962;1274;25254;-65
2022/07/19 05:50:57;;;;;;;11.30;1.20;;;;;;;18.96;67.17;100864.27;105682;1274;22630;-65
2022/07/19 05:53:29;;;;;;;18.60;2.20;;;;;;;19.04;66.51;100861.52;105744;1271;25240;-65
2022/07/19 05:56:01;;;;;;;13.40;1.50;;;;;;;19.10;66.05;100854.46;105877;1272;22535;-67
2022/07/19 05:58:32;;;;;;;7.90;1.30;;;;;;;19.17;65.86;100855.82;105839;1272;25256;-65
2022/07/19 06:01:22;;;;;;;11.20;1.60;;;;;;;19.22;65.86;100858.09;105878;1273;25387;-65
2022/07/19 06:03:56;;;;;;;12.30;1.60;;;;;;;19.32;65.72;100866.64;105916;1274;22606;-66
2022/07/19 06:06:29;;;;;;;8.50;1.00;;;;;;;19.41;65.35;100861.56;105745;1272;22531;-64
2022/07/19 06:09:01;;;;;;;13.00;1.30;;;;;;;19.48;64.82;100859.02;106071;1273;22519;-65
2022/07/19 06:11:33;;;;;;;12.20;1.90;;;;;;;19.53;64.46;100863.53;105901;1273;22610;-65
2022/07/19 06:14:06;;;;;;;7.10;1.40;;;;;;;19.60;64.15;100864.96;105865;1271;24237;-65
2022/07/19 06:16:46;;;;;;;10.90;1.30;;;;;;;19.67;64.17;100866.45;105813;1274;24434;-64
2022/07/19 06:19:18;;;;;;;10.10;1.40;;;;;;;19.74;63.80;100865.20;105818;1272;24236;-65
2022/07/19 06:21:50;;;;;;;8.00;1.30;;;;;;;19.84;63.76;100862.59;105961;1273;25858;-65
2022/07/19 06:24:21;;;;;;;8.80;1.10;;;;;;;19.96;63.25;100859.39;106011;1273;25678;-65
2022/07/19 06:26:54;;;;;;;8.30;0.90;;;;;;;20.06;62.81;100854.81;101883;1273;5661699;-65
2022/07/19 06:29:25;;;;;;;6.40;1.40;;;;;;;20.21;62.55;100857.83;105839;1273;24546;-65
2022/07/19 06:31:56;;;;;;;7.70;1.10;;;;;;;20.30;62.22;100858.00;105845;1273;22496;-65
2022/07/19 06:34:28;;;;;;;10.50;1.10;;;;;;;20.36;62.26;100858.59;105662;1273;25493;-65
2022/07/19 06:36:59;;;;;;;9.90;1.30;;;;;;;20.48;62.28;100854.45;105761;1273;25412;-65
2022/07/19 06:39:31;;;;;;;9.60;1.40;;;;;;;20.59;62.14;100858.27;105976;1273;25308;-65
2022/07/19 06:42:02;;;;;;;6.40;1.40;;;;;;;20.71;62.00;100860.60;105950;1273;22547;-65
2022/07/19 06:44:35;;;;;;;10.20;1.00;;;;;;;20.86;61.61;100857.32;105809;1273;25321;-65
2022/07/19 06:47:09;;;;;;;9.00;1.10;;;;;;;21.00;61.38;100849.73;105852;1273;22549;-65
2022/07/19 06:49:40;;;;;;;8.30;1.10;;;;;;;21.13;60.74;100846.44;105778;1271;22631;-66
2022/07/19 06:52:12;;;;;;;7.00;0.90;;;;;;;21.25;60.43;100846.05;105803;1272;22556;-65
2022/07/19 06:54:44;;;;;;;10.70;1.40;;;;;;;21.36;60.12;100842.59;105840;1272;25523;-65
2022/07/19 06:57:16;;;;;;;7.40;1.10;;;;;;;21.49;59.63;100843.30;105963;1273;22991;-65
2022/07/19 06:59:47;;;;;;;12.40;1.20;;;;;;;21.59;59.38;100838.85;105866;1273;24280;-65
2022/07/19 07:02:24;;;;;;;24.50;2.10;;;;;;;21.72;58.77;100838.39;106324;1260;24254;-54
2022/07/19 07:04:57;;;;;;;7.90;1.20;;;;;;;21.86;59.14;100845.05;106176;1274;26640;-53
2022/07/19 07:07:30;;;;;;;12.40;1.30;;;;;;;21.98;58.19;100843.59;106174;1274;22564;-54
2022/07/19 07:10:02;;;;;;;6.10;0.90;;;;;;;22.08;58.09;100844.90;106118;1274;25426;-51
2022/07/19 07:12:34;;;;;;;10.90;1.10;;;;;;;22.23;57.25;100844.58;105939;1274;22580;-53
2022/07/19 07:15:08;;;;;;;9.40;1.20;;;;;;;22.35;56.12;100843.52;107271;1273;22593;-53
2022/07/19 07:17:40;;;;;;;8.80;1.10;;;;;;;22.46;56.35;100845.98;106685;1273;22711;-51
2022/07/19 07:20:13;;;;;;;7.30;1.20;;;;;;;22.57;55.88;100846.80;105969;1274;22758;-53
2022/07/19 07:22:45;;;;;;;6.10;0.90;;;;;;;22.69;54.92;100845.23;105662;1274;25452;-50
2022/07/19 07:25:18;;;;;;;12.70;1.00;;;;;;;22.83;54.97;100845.90;105859;1271;24227;-51
2022/07/19 07:27:50;;;;;;;6.90;0.90;;;;;;;22.95;54.43;100845.13;105780;1274;24332;-52
2022/07/19 07:30:22;;;;;;;6.90;0.90;;;;;;;23.07;54.31;100842.36;105770;1274;25574;-51
2022/07/19 07:32:54;;;;;;;6.10;0.90;;;;;;;23.19;53.89;100840.34;105858;1274;25344;-54
2022/07/19 07:35:27;;;;;;;10.70;0.90;;;;;;;23.32;52.98;100844.09;105568;1271;23495;-54
2022/07/19 07:37:59;;;;;;;4.30;0.70;;;;;;;23.46;53.08;100840.56;105595;1271;22557;-50
2022/07/19 07:40:30;;;;;;;4.10;0.60;;;;;;;23.62;52.43;100846.13;105577;1274;25317;-51
2022/07/19 07:43:02;;;;;;;3.20;0.80;;;;;;;23.75;51.33;100847.30;105639;1271;23218;-53
2022/07/19 07:45:34;;;;;;;4.10;0.70;;;;;;;23.85;51.68;100847.15;105591;1273;24428;-51
2022/07/19 07:48:06;;;;;;;4.10;0.70;;;;;;;23.96;50.79;100845.92;105817;1274;22542;-57
2022/07/19 07:50:37;;;;;;;8.70;0.90;;;;;;;24.10;50.19;100847.09;105723;1274;23128;-51
2022/07/19 07:53:09;;;;;;;5.20;0.70;;;;;;;24.22;49.16;100848.73;105749;1274;24361;-49
2022/07/19 07:55:41;;;;;;;7.30;0.70;;;;;;;24.36;48.75;100847.98;105829;1273;25423;-51
2022/07/19 07:58:13;;;;;;;5.50;0.80;;;;;;;24.46;48.61;100844.90;105661;1271;25354;-50
2022/07/19 08:00:45;;;;;;;8.10;0.90;;;;;;;24.57;47.86;100843.73;105608;1271;22672;-51
2022/07/19 08:03:17;;;;;;;5.10;0.80;;;;;;;24.69;47.74;100846.45;105716;1273;22546;-51
2022/07/19 08:05:49;;;;;;;5.70;0.80;;;;;;;24.82;46.96;100843.35;105742;1273;22571;-52
2022/07/19 08:08:21;;;;;;;6.30;1.00;;;;;;;24.89;46.55;100848.18;105723;1274;22589;-53
2022/07/19 08:10:53;;;;;;;4.30;0.80;;;;;;;25.00;46.01;100849.44;105704;1273;22557;-57
2022/07/19 08:13:26;;;;;;;5.40;0.80;;;;;;;25.10;45.95;100848.98;105667;1273;22537;-52
2022/07/19 08:15:58;;;;;;;7.30;0.70;;;;;;;25.23;44.54;100849.66;105847;1273;22922;-53
2022/07/19 08:18:29;;;;;;;2.60;0.50;;;;;;;25.38;44.58;100840.45;105747;1273;22550;-50
2022/07/19 08:21:01;;;;;;;4.30;0.70;;;;;;;25.47;44.40;100843.84;105797;1273;22736;-55
2022/07/19 08:23:32;;;;;;;5.80;0.60;;;;;;;25.58;43.95;100842.56;105845;1273;22637;-53
2022/07/19 08:26:04;;;;;;;7.10;0.60;;;;;;;25.75;43.66;100848.84;105843;1273;22655;-54
2022/07/19 08:28:36;;;;;;;2.70;0.60;;;;;;;25.89;43.32;100841.06;105952;1273;24349;-56
2022/07/19 08:31:07;;;;;;;4.20;0.60;;;;;;;25.99;42.52;100839.01;105866;1273;23293;-50
2022/07/19 08:33:40;;;;;;;6.20;0.70;;;;;;;26.07;41.72;100829.44;105703;1273;22529;-59
2022/07/19 08:36:12;;;;;;;3.70;0.70;;;;;;;26.12;41.85;100835.13;105803;1273;23003;-54
2022/07/19 08:38:46;;;;;;;3.80;0.70;;;;;;;26.21;41.53;100829.34;105984;1273;25382;-55
2022/07/19 08:41:18;;;;;;;6.50;0.90;;;;;;;26.32;40.97;100832.95;105831;1273;22548;-51
2022/07/19 08:43:51;;;;;;;3.30;0.60;;;;;;;26.36;40.33;100833.09;105751;1273;22531;-56
2022/07/19 08:46:23;;;;;;;4.80;0.60;;;;;;;26.41;39.55;100831.17;105730;1273;22525;-56
2022/07/19 08:48:56;;;;;;;3.60;0.60;;;;;;;26.50;38.97;100832.11;105608;1273;23144;-53
2022/07/19 08:51:29;;;;;;;5.60;0.70;;;;;;;26.56;39.15;100829.69;105652;1273;25429;-53
2022/07/19 08:54:01;;;;;;;4.40;1.00;;;;;;;26.64;38.37;100830.30;105741;1273;22550;-53
2022/07/19 08:59:22;;;;;;;5.00;0.90;;;;;;;26.68;37.32;100822.50;105929;1273;25529;-53
2022/07/19 09:01:54;;;;;;;5.30;0.70;;;;;;;26.70;36.08;100822.27;105677;1273;25475;-54
2022/07/19 09:04:28;;;;;;;3.70;0.70;;;;;;;26.71;36.06;100820.94;105495;1273;22574;-52
2022/07/19 09:07:00;;;;;;;4.70;0.50;;;;;;;26.79;35.89;100820.27;105825;1271;22535;-54
2022/07/19 09:09:34;;;;;;;4.10;0.60;;;;;;;26.90;35.69;100825.09;105643;1273;22538;-54
2022/07/19 09:12:07;;;;;;;3.40;0.80;;;;;;;26.99;36.00;100820.06;105801;1273;24980;-56
2022/07/19 09:14:40;;;;;;;7.20;0.60;;;;;;;27.06;35.76;100810.66;105708;1273;22613;-52
2022/07/19 09:17:16;;;;;;;5.40;0.50;;;;;;;27.11;35.51;100812.96;105698;1271;24310;-54
2022/07/19 09:19:49;;;;;;;4.60;0.70;;;;;;;27.20;35.45;100811.70;105568;1272;24174;-52
2022/07/19 09:22:22;;;;;;;7.80;0.60;;;;;;;27.29;35.49;100811.80;105834;1273;25386;-55
2022/07/19 09:24:54;;;;;;;6.60;1.20;;;;;;;27.40;35.57;100808.70;105695;1272;25391;-56
2022/07/19 09:27:26;;;;;;;5.00;0.80;;;;;;;27.49;35.19;100805.85;105675;1271;24291;-55
2022/07/19 09:30:00;;;;;;;4.30;0.80;;;;;;;27.55;34.63;100804.71;105708;1273;22685;-55
2022/07/19 09:32:31;;;;;;;4.40;0.70;;;;;;;27.60;34.99;100804.64;105541;1273;24284;-55
2022/07/19 09:35:04;;;;;;;4.90;0.60;;;;;;;27.64;34.67;100800.73;105790;1271;22549;-55
2022/07/19 09:37:39;;;;;;;5.40;0.90;;;;;;;27.72;34.59;100799.27;105718;1273;24276;-54
2022/07/19 09:40:12;;;;;;;7.20;0.90;;;;;;;27.76;34.23;100801.11;105599;1271;22553;-56
2022/07/19 09:42:44;;;;;;;4.90;0.90;;;;;;;27.79;33.92;100799.87;105638;1273;25375;-53
2022/07/19 09:45:18;;;;;;;4.50;0.80;;;;;;;27.80;33.91;100797.02;105650;1273;22570;-52
2022/07/19 09:47:50;;;;;;;7.50;0.70;;;;;;;27.83;33.70;100793.93;105673;1273;22544;-52
2022/07/19 09:50:22;;;;;;;5.90;0.70;;;;;;;27.82;33.38;100794.70;105646;1273;24252;-55
2022/07/19 09:52:54;;;;;;;3.60;0.80;;;;;;;27.79;33.68;100792.60;105679;1273;24316;-56
2022/07/19 09:55:26;;;;;;;7.00;0.60;;;;;;;27.81;33.20;100790.77;105608;1273;23088;-55
2022/07/19 09:58:01;;;;;;;4.00;0.70;;;;;;;27.85;33.14;100790.36;105615;1273;22582;-55
2022/07/19 10:00:33;;;;;;;4.40;0.80;;;;;;;27.86;33.10;100790.73;105639;1273;22529;-52
2022/07/19 10:03:05;;;;;;;8.00;0.80;;;;;;;27.89;33.05;100788.59;105752;1273;22576;-55
2022/07/19 10:05:37;;;;;;;5.10;0.80;;;;;;;27.96;32.77;100790.73;105674;1273;22705;-52
2022/07/19 10:08:10;;;;;;;5.00;0.70;;;;;;;28.00;32.18;100777.88;105770;1273;24204;-52
2022/07/19 10:10:44;;;;;;;3.90;0.70;;;;;;;28.02;32.05;100782.61;105669;1272;22616;-56
2022/07/19 10:13:17;;;;;;;6.10;0.80;;;;;;;28.00;32.17;100780.21;105742;1273;25478;-51
2022/07/19 10:15:54;;;;;;;5.60;0.80;;;;;;;28.06;32.62;100780.21;105701;1273;22558;-55
2022/07/19 10:18:31;;;;;;;5.80;0.80;;;;;;;28.14;32.15;100769.70;105540;1273;22547;-51
2022/07/19 10:21:03;;;;;;;6.00;0.80;;;;;;;28.18;31.80;100770.32;105642;1273;24316;-53
2022/07/19 10:23:50;;;;;;;5.80;0.70;;;;;;;28.22;31.28;100766.66;105784;1271;24339;-58
2022/07/19 10:26:38;;;;;;;4.70;0.70;;;;;;;28.22;31.05;100771.11;105918;1272;22544;-54
2022/07/19 10:29:16;;;;;;;4.70;0.90;;;;;;;28.24;31.11;100767.98;105631;1273;24212;-54
2022/07/19 10:32:06;;;;;;;3.50;0.90;;;;;;;28.31;30.78;100768.86;105613;1273;22548;-55
2022/07/19 10:34:38;;;;;;;;;;;;;;;28.36;30.75;100763.83;106060;1273;25226;-53
2022/07/19 10:37:10;;;;;;;7.20;1.20;;;;;;;28.42;30.61;100763.45;105887;1273;25247;-51
2022/07/19 10:39:42;;;;;;;4.70;0.80;;;;;;;28.46;30.39;100761.49;105651;1272;22538;-54
2022/07/19 10:42:16;;;;;;;4.60;0.80;;;;;;;28.51;30.41;100764.05;105808;1273;22528;-56
2022/07/19 10:45:15;;;;;;;5.60;0.90;;;;;;;28.54;30.31;100763.34;105867;1273;22545;-52
2022/07/19 10:48:07;;;;;;;6.40;0.90;;;;;;;28.57;30.06;100759.28;105891;1273;22662;-51
2022/07/19 10:50:59;;;;;;;2.80;0.90;;;;;;;28.61;30.55;100748.15;105873;1273;22535;-54
2022/07/19 10:54:03;;;;;;;3.80;0.70;;;;;;;28.71;30.53;100745.21;105698;1273;22578;-54
2022/07/19 10:56:37;;;;;;;6.90;0.90;;;;;;;28.83;30.76;100744.17;105730;1273;23985;-52
2022/07/19 10:59:30;;;;;;;4.60;0.70;;;;;;;28.90;30.15;100743.77;106050;1271;24299;-55
2022/07/19 11:02:04;;;;;;;3.70;0.80;;;;;;;28.94;29.70;100747.90;105944;1273;22705;-51
2022/07/19 11:04:37;;;;;;;7.60;0.90;;;;;;;28.94;29.53;100746.36;105783;1273;25444;-55
2022/07/19 11:07:20;;;;;;;4.90;1.00;;;;;;;28.91;29.51;100743.41;105709;1273;22565;-55
2022/07/19 11:09:55;;;;;;;6.00;0.80;;;;;;;28.94;29.39;100741.42;106080;1273;25382;-53
2022/07/19 11:12:33;;;;;;;6.30;1.10;;;;;;;28.95;29.70;100734.81;106151;1273;22571;-52
2022/07/19 11:15:08;;;;;;;5.00;0.80;;;;;;;29.03;29.56;100733.83;105868;1273;25360;-53
2022/07/19 11:17:40;;;;;;;3.60;0.80;;;;;;;29.11;29.80;100724.45;105919;1273;25604;-54
2022/07/19 11:20:16;;;;;;;13.20;0.90;;;;;;;29.20;28.70;100727.64;105933;1273;22553;-55
2022/07/19 11:22:49;;;;;;;3.40;0.60;;;;;;;29.22;28.52;100728.26;105843;1271;22546;-54
2022/07/19 11:25:26;;;;;;;4.00;0.60;;;;;;;29.22;28.40;100723.85;106128;1273;23841;-55
2022/07/19 11:27:59;;;;;;;2.50;0.60;;;;;;;29.22;28.70;100718.45;106023;1272;22569;-53
2022/07/19 11:30:32;;;;;;;5.40;0.70;;;;;;;29.31;28.50;100719.70;105707;1273;25478;-53
2022/07/19 11:33:06;;;;;;;3.90;0.70;;;;;;;29.38;28.93;100719.27;105973;1273;24408;-53
2022/07/19 11:35:37;;;;;;;5.00;0.70;;;;;;;29.43;28.70;100717.09;105626;1273;22757;-52
2022/07/19 11:38:20;;;;;;;4.50;0.70;;;;;;;29.46;28.00;100720.63;105941;1273;24176;-52
2022/07/19 11:40:56;;;;;;;5.60;0.70;;;;;;;29.50;28.54;100716.06;106323;1273;25400;-55
2022/07/19 11:43:40;;;;;;;4.20;0.50;;;;;;;29.58;28.49;100715.11;106598;1273;24467;-56